Platte, Nebraska
Current Conditions -  °F | °C
As of 1:53 PM on Thursday 30 Oct 2014 (Local Time) from KHSI Reporting Station
Clear Clear  
Wind Chill: 17°   Ceiling: Unl
Heat Index: 17°   Visibility: 10mi
Dew Point:   Wind: 23mph
Humidity: 33%   Direction: 330°NNW
Pressure: 30.17"   Gusts: NA
Location:  40.6115°N, 98.6672°W
Report Text: KHSI 301853Z AUTO 33020KT 10SM CLR 17/01 A3017 RMK AO2 PK WND 35030/1819 SLP217 T01720006
Loading
Personal Weather Stations






























Interactive Weather Map
Tropical Storm Tracking
New forecast layout! Learn more

10-Day Weather Forecast

Advertisements
Track Severe Weather on mobile